createdAt,value
2022-12-28T00:00:17.944Z,11.80
2022-12-28T00:02:46.741Z,19.83
2022-12-28T00:05:15.752Z,13.20
2022-12-28T00:07:44.481Z,18.20
2022-12-28T00:10:13.093Z,11.57
2022-12-28T00:12:41.855Z,16.45
2022-12-28T00:15:11.558Z,33.65
2022-12-28T00:17:41.988Z,14.88
2022-12-28T00:20:16.074Z,14.87
2022-12-28T00:22:45.564Z,14.95
2022-12-28T00:25:15.857Z,13.88
2022-12-28T00:27:49.199Z,15.15
2022-12-28T00:30:19.055Z,15.95
2022-12-28T00:32:49.533Z,13.50
2022-12-28T00:35:18.419Z,12.30
2022-12-28T00:37:48.272Z,12.57
2022-12-28T00:40:23.981Z,14.35
2022-12-28T00:42:57.625Z,12.77
2022-12-28T00:45:26.294Z,11.90
2022-12-28T00:47:56.599Z,11.82
2022-12-28T00:50:26.049Z,16.30
2022-12-28T00:52:54.698Z,11.45
2022-12-28T00:55:23.621Z,18.00
2022-12-28T00:57:52.319Z,13.03
2022-12-28T01:00:21.239Z,14.18
2022-12-28T01:02:49.904Z,11.32
2022-12-28T01:05:21.336Z,10.77
2022-12-28T01:07:50.406Z,12.65
2022-12-28T01:10:31.514Z,13.77
2022-12-28T01:13:06.892Z,15.20
2022-12-28T01:15:36.641Z,11.85
2022-12-28T01:18:07.407Z,10.88
2022-12-28T01:20:40.737Z,10.57
2022-12-28T01:23:11.035Z,8.57
2022-12-28T01:25:39.864Z,13.30
2022-12-28T01:28:08.480Z,15.40
2022-12-28T01:30:38.984Z,8.68
2022-12-28T01:33:10.042Z,16.63
2022-12-28T01:35:41.287Z,11.40
2022-12-28T01:38:09.940Z,9.75
2022-12-28T01:40:38.686Z,9.57
2022-12-28T01:43:14.902Z,12.25
2022-12-28T01:46:04.780Z,11.18
2022-12-28T01:48:36.438Z,7.83
2022-12-28T01:51:07.199Z,11.30
2022-12-28T01:53:35.940Z,12.32
2022-12-28T01:56:06.064Z,11.95
2022-12-28T01:58:36.637Z,12.63
2022-12-28T02:01:06.147Z,14.77
2022-12-28T02:03:37.066Z,11.80
2022-12-28T02:06:12.538Z,9.85
2022-12-28T02:08:51.320Z,10.95
2022-12-28T02:11:21.436Z,12.23
2022-12-28T02:13:53.727Z,11.17
2022-12-28T02:16:22.467Z,12.23
2022-12-28T02:18:51.982Z,12.63
2022-12-28T02:21:33.068Z,12.40
2022-12-28T02:24:43.265Z,8.40
2022-12-28T02:27:29.338Z,14.17
2022-12-28T02:30:08.029Z,8.88
2022-12-28T02:32:53.948Z,16.55
2022-12-28T02:35:35.750Z,8.90
2022-12-28T02:38:16.127Z,12.68
2022-12-28T02:40:49.831Z,10.07
2022-12-28T02:43:18.770Z,10.68
2022-12-28T02:46:07.689Z,10.45
2022-12-28T02:48:59.384Z,10.77
2022-12-28T02:51:58.071Z,10.80
2022-12-28T02:55:21.411Z,10.30
2022-12-28T02:58:13.659Z,9.07
2022-12-28T03:01:05.154Z,12.02
2022-12-28T03:03:45.757Z,11.00
2022-12-28T03:06:46.751Z,9.25
2022-12-28T03:09:25.668Z,15.27
2022-12-28T03:12:01.014Z,10.52
2022-12-28T03:14:37.641Z,12.82
2022-12-28T03:17:32.175Z,9.73
2022-12-28T03:20:34.557Z,14.93
2022-12-28T03:23:27.962Z,15.60
2022-12-28T03:26:19.256Z,16.23
2022-12-28T03:29:09.640Z,8.80
2022-12-28T03:31:43.577Z,11.98
2022-12-28T03:34:16.292Z,6.47
2022-12-28T03:36:59.683Z,11.80
2022-12-28T03:39:40.109Z,7.88
2022-12-28T03:42:34.686Z,9.60
2022-12-28T03:45:13.441Z,22.30
2022-12-28T03:47:45.566Z,9.45
2022-12-28T03:50:16.611Z,7.00
2022-12-28T03:52:45.872Z,8.68
2022-12-28T03:55:17.165Z,18.83
2022-12-28T03:57:46.938Z,10.50
2022-12-28T04:00:21.752Z,6.32
2022-12-28T04:02:53.629Z,8.33
2022-12-28T04:05:23.866Z,7.43
2022-12-28T04:07:53.525Z,8.10
2022-12-28T04:10:22.253Z,8.40
2022-12-28T04:12:55.903Z,7.72
2022-12-28T04:16:03.251Z,9.17
2022-12-28T04:18:34.857Z,8.57
2022-12-28T04:21:05.351Z,9.63
2022-12-28T04:23:35.215Z,13.13
2022-12-28T04:26:18.530Z,11.35
2022-12-28T04:28:49.898Z,8.93
2022-12-28T04:31:40.921Z,13.88
2022-12-28T04:34:15.467Z,13.35
2022-12-28T04:36:53.426Z,10.60
2022-12-28T04:39:23.967Z,8.32
2022-12-28T04:41:52.756Z,9.67
2022-12-28T04:44:21.399Z,11.23
2022-12-28T04:46:50.309Z,8.32
2022-12-28T04:49:19.270Z,10.52
2022-12-28T04:51:47.949Z,9.32
2022-12-28T04:54:22.847Z,7.07
2022-12-28T04:56:51.550Z,7.78
2022-12-28T04:59:20.393Z,6.45
2022-12-28T05:01:49.088Z,8.40
2022-12-28T05:04:17.866Z,9.82
2022-12-28T05:06:46.633Z,8.97
2022-12-28T05:09:15.302Z,7.45
2022-12-28T05:11:46.020Z,8.77
2022-12-28T05:14:20.078Z,9.23
2022-12-28T05:16:52.311Z,11.52
2022-12-28T05:19:20.984Z,9.73
2022-12-28T05:21:49.689Z,10.23
2022-12-28T05:24:18.351Z,6.65
2022-12-28T05:26:48.358Z,8.75
2022-12-28T05:29:16.976Z,6.40
2022-12-28T05:31:45.713Z,7.17
2022-12-28T05:34:14.368Z,4.72
2022-12-28T05:36:42.956Z,6.78
2022-12-28T05:39:11.601Z,9.27
2022-12-28T05:41:40.389Z,9.70
2022-12-28T05:44:10.493Z,7.50
2022-12-28T05:46:39.198Z,6.20
2022-12-28T05:49:10.446Z,11.30
2022-12-28T05:51:40.148Z,12.63
2022-12-28T05:54:08.956Z,13.60
2022-12-28T05:56:37.826Z,8.27
2022-12-28T05:59:09.818Z,8.57
2022-12-28T06:01:41.407Z,6.38
2022-12-28T06:04:17.750Z,6.45
2022-12-28T06:07:12.310Z,9.60
2022-12-28T06:09:40.993Z,6.33
2022-12-28T06:12:09.635Z,8.57
2022-12-28T06:14:39.771Z,6.03
2022-12-28T06:17:08.462Z,7.45
2022-12-28T06:19:37.183Z,7.45
2022-12-28T06:22:05.796Z,8.83
2022-12-28T06:24:34.558Z,6.75
2022-12-28T06:27:03.257Z,7.57
2022-12-28T06:29:31.861Z,7.63
2022-12-28T06:32:01.948Z,8.00
2022-12-28T06:34:30.805Z,8.43
2022-12-28T06:37:00.436Z,7.13
2022-12-28T06:39:29.625Z,8.20
2022-12-28T06:41:58.841Z,8.05
2022-12-28T06:44:27.483Z,7.90
2022-12-28T06:46:56.136Z,7.97
2022-12-28T06:49:26.250Z,8.85
2022-12-28T06:51:54.832Z,5.82
2022-12-28T06:54:23.512Z,5.55
2022-12-28T06:56:52.139Z,10.68
2022-12-28T06:59:20.753Z,9.97
2022-12-28T07:01:49.975Z,11.80
2022-12-28T07:04:18.906Z,7.75
2022-12-28T07:06:48.920Z,9.80
2022-12-28T07:09:18.364Z,12.98
2022-12-28T07:11:49.583Z,11.97
2022-12-28T07:14:19.024Z,23.52
2022-12-28T07:16:49.244Z,9.68
2022-12-28T07:19:17.888Z,14.93
2022-12-28T07:21:46.557Z,8.00
2022-12-28T07:24:16.579Z,12.43
2022-12-28T07:26:45.202Z,11.43
2022-12-28T07:29:13.919Z,8.95
2022-12-28T07:31:45.804Z,10.80
2022-12-28T07:34:16.601Z,9.45
2022-12-28T07:36:45.333Z,10.20
2022-12-28T07:39:15.484Z,7.60
2022-12-28T07:41:44.267Z,10.30
2022-12-28T07:44:12.911Z,10.90
2022-12-28T07:46:41.521Z,12.75
2022-12-28T07:49:10.204Z,10.13
2022-12-28T07:51:40.842Z,10.52
2022-12-28T07:54:09.693Z,10.15
2022-12-28T07:59:08.427Z,13.15
2022-12-28T08:01:38.317Z,12.00
2022-12-28T08:04:10.292Z,11.50
2022-12-28T08:06:42.397Z,20.83
2022-12-28T08:09:13.822Z,9.35
2022-12-28T08:11:46.294Z,12.32
2022-12-28T08:14:14.912Z,12.00
2022-12-28T08:16:46.092Z,17.52
2022-12-28T08:19:14.935Z,10.48
2022-12-28T08:21:47.231Z,14.50
2022-12-28T08:24:18.614Z,10.68
2022-12-28T08:26:49.796Z,28.10
2022-12-28T08:29:22.706Z,18.83
2022-12-28T08:31:51.797Z,11.48
2022-12-28T08:34:26.780Z,12.50
2022-12-28T08:36:56.326Z,14.40
2022-12-28T08:39:25.262Z,11.67
2022-12-28T08:41:55.401Z,13.45
2022-12-28T08:44:24.092Z,13.38
2022-12-28T08:46:56.167Z,15.77
2022-12-28T08:49:25.126Z,10.82
2022-12-28T08:51:54.521Z,15.50
2022-12-28T08:54:23.479Z,9.60
2022-12-28T08:56:54.332Z,12.35
2022-12-28T08:59:24.486Z,12.32
2022-12-28T09:01:53.283Z,11.73
2022-12-28T09:04:23.886Z,9.37
2022-12-28T09:06:52.716Z,7.35
2022-12-28T09:09:22.116Z,7.32
2022-12-28T09:11:51.295Z,9.60
2022-12-28T09:14:23.588Z,7.28
2022-12-28T09:16:55.374Z,6.57
2022-12-28T09:19:24.845Z,10.30
2022-12-28T09:21:55.346Z,6.63
2022-12-28T09:24:24.810Z,9.43
2022-12-28T09:26:55.405Z,10.45
2022-12-28T09:29:24.208Z,8.20
2022-12-28T09:31:54.415Z,11.32
2022-12-28T09:34:38.651Z,8.90
2022-12-28T09:37:08.957Z,12.13
2022-12-28T09:39:37.709Z,7.90
2022-12-28T09:42:15.918Z,9.07
2022-12-28T09:44:59.647Z,8.98
2022-12-28T09:47:38.834Z,9.48
2022-12-28T09:50:31.329Z,9.43
2022-12-28T09:53:19.899Z,13.35
2022-12-28T09:56:02.346Z,11.70
2022-12-28T09:58:33.473Z,9.57
2022-12-28T10:01:04.998Z,12.70
2022-12-28T10:03:40.183Z,10.75
2022-12-28T10:06:14.679Z,10.82
2022-12-28T10:08:48.487Z,28.10
2022-12-28T10:11:21.496Z,14.10
2022-12-28T10:13:56.478Z,9.82
2022-12-28T10:16:29.484Z,9.30
2022-12-28T10:19:00.996Z,8.38
2022-12-28T10:21:34.907Z,8.13
2022-12-28T10:27:00.841Z,10.73
2022-12-28T10:29:33.953Z,9.20
2022-12-28T10:32:06.682Z,10.15
2022-12-28T10:34:38.845Z,6.23
2022-12-28T10:37:15.892Z,9.43
2022-12-28T10:39:52.932Z,9.55
2022-12-28T10:42:27.220Z,10.32
2022-12-28T10:45:04.448Z,7.93
2022-12-28T10:47:38.417Z,10.80
2022-12-28T10:50:40.772Z,11.88
2022-12-28T10:53:19.876Z,11.00
2022-12-28T10:55:48.549Z,15.68
2022-12-28T10:58:31.686Z,15.10
2022-12-28T11:01:06.853Z,11.80
2022-12-28T11:03:38.933Z,14.27
2022-12-28T11:06:26.329Z,6.22
2022-12-28T11:09:16.750Z,9.65
2022-12-28T11:11:48.169Z,10.25
2022-12-28T11:14:28.035Z,9.50
2022-12-28T11:16:56.882Z,15.30
2022-12-28T11:19:27.204Z,8.27
2022-12-28T11:21:58.442Z,12.45
2022-12-28T11:24:28.902Z,10.05
2022-12-28T11:26:59.103Z,7.63
2022-12-28T11:29:28.616Z,9.00
2022-12-28T11:32:05.997Z,7.00
2022-12-28T11:34:35.365Z,9.68
2022-12-28T11:37:06.639Z,8.45
2022-12-28T11:39:46.444Z,9.23
2022-12-28T11:42:57.125Z,8.93
2022-12-28T11:45:53.400Z,6.32
2022-12-28T11:48:51.131Z,12.18
2022-12-28T11:51:24.033Z,8.93
2022-12-28T11:54:03.112Z,5.77
2022-12-28T11:57:00.162Z,6.97
2022-12-28T11:59:32.630Z,7.88
2022-12-28T12:02:02.349Z,7.55
2022-12-28T12:04:39.196Z,9.07
2022-12-28T12:07:30.606Z,7.43
2022-12-28T12:10:31.404Z,9.80
2022-12-28T12:13:01.025Z,14.38
2022-12-28T12:15:41.214Z,14.20
2022-12-28T12:18:23.315Z,11.48
2022-12-28T12:21:02.073Z,10.50
2022-12-28T12:23:42.067Z,8.00
2022-12-28T12:26:37.984Z,9.32
2022-12-28T12:29:15.987Z,8.43
2022-12-28T12:31:52.040Z,7.80
2022-12-28T12:34:33.732Z,7.73
2022-12-28T12:37:47.539Z,9.57
2022-12-28T12:41:00.270Z,10.23
2022-12-28T12:43:39.166Z,9.50
2022-12-28T12:46:36.646Z,8.40
2022-12-28T12:49:48.915Z,5.87
2022-12-28T12:52:36.045Z,7.50
2022-12-28T12:55:22.656Z,5.75
2022-12-28T12:57:59.227Z,5.57
2022-12-28T13:00:42.369Z,5.07
2022-12-28T13:03:33.433Z,8.10
2022-12-28T13:06:07.477Z,6.43
2022-12-28T13:08:42.315Z,5.50
2022-12-28T13:11:13.025Z,7.28
2022-12-28T13:13:46.359Z,5.80
2022-12-28T13:16:19.677Z,8.27
2022-12-28T13:18:57.611Z,4.38
2022-12-28T13:21:29.774Z,15.23
2022-12-28T13:23:58.469Z,7.32
2022-12-28T13:26:30.670Z,4.95
2022-12-28T13:29:03.109Z,5.57
2022-12-28T13:31:37.301Z,6.45
2022-12-28T13:34:17.033Z,4.10
2022-12-28T13:36:53.831Z,4.80
2022-12-28T13:39:24.173Z,10.77
2022-12-28T13:41:56.340Z,8.43
2022-12-28T13:44:44.967Z,5.72
2022-12-28T13:47:23.280Z,7.30
2022-12-28T13:49:59.656Z,6.05
2022-12-28T13:52:35.094Z,10.77
2022-12-28T13:55:11.765Z,5.77
2022-12-28T13:57:49.146Z,4.90
2022-12-28T14:00:22.380Z,5.43
2022-12-28T14:02:56.605Z,6.75
2022-12-28T14:05:28.803Z,8.95
2022-12-28T14:08:01.169Z,7.23
2022-12-28T14:10:30.390Z,9.45
2022-12-28T14:13:01.098Z,22.70
2022-12-28T14:15:31.036Z,9.52
2022-12-28T14:18:03.096Z,13.88
2022-12-28T14:20:31.843Z,7.17
2022-12-28T14:23:22.934Z,12.23
2022-12-28T14:25:53.006Z,10.98
2022-12-28T14:28:28.247Z,10.85
2022-12-28T14:30:57.881Z,8.52
2022-12-28T14:33:30.187Z,8.93
2022-12-28T14:36:02.373Z,8.98
2022-12-28T14:38:36.373Z,12.70
2022-12-28T14:41:06.318Z,13.00
2022-12-28T14:43:38.032Z,11.55
2022-12-28T14:46:19.171Z,11.23
2022-12-28T14:48:47.891Z,9.23
2022-12-28T14:51:35.822Z,10.88
2022-12-28T14:54:31.413Z,9.55
2022-12-28T14:57:04.867Z,7.93
2022-12-28T14:59:39.571Z,8.97
2022-12-28T15:02:30.912Z,8.13
2022-12-28T15:05:14.206Z,10.70
2022-12-28T15:07:42.820Z,9.10
2022-12-28T15:10:12.903Z,8.65
2022-12-28T15:12:42.002Z,9.20
2022-12-28T15:15:12.162Z,12.40
2022-12-28T15:17:40.731Z,5.88
2022-12-28T15:20:10.723Z,10.20
2022-12-28T15:22:39.420Z,11.95
2022-12-28T15:25:10.454Z,7.97
2022-12-28T15:27:40.414Z,9.88
2022-12-28T15:30:14.693Z,10.18
2022-12-28T15:32:48.388Z,13.45
2022-12-28T15:35:17.319Z,17.13
2022-12-28T15:37:45.962Z,15.43
2022-12-28T15:40:14.592Z,15.73
2022-12-28T15:42:47.485Z,17.33
2022-12-28T15:45:17.836Z,12.85
2022-12-28T15:47:46.806Z,11.20
2022-12-28T15:50:15.436Z,10.77
2022-12-28T15:52:44.144Z,12.57
2022-12-28T15:55:12.769Z,13.00
2022-12-28T15:57:41.793Z,9.98
2022-12-28T16:00:18.753Z,9.85
2022-12-28T16:02:47.974Z,9.47
2022-12-28T16:05:16.969Z,10.10
2022-12-28T16:07:45.609Z,9.77
2022-12-28T16:10:14.236Z,8.88
2022-12-28T16:12:42.995Z,12.27
2022-12-28T16:15:13.457Z,9.17
2022-12-28T16:17:51.345Z,9.52
2022-12-28T16:20:22.870Z,12.95
2022-12-28T16:22:53.744Z,10.32
2022-12-28T16:25:22.401Z,9.15
2022-12-28T16:27:50.953Z,7.97
2022-12-28T16:30:21.012Z,7.88
2022-12-28T16:32:49.618Z,7.80
2022-12-28T16:35:18.434Z,8.90
2022-12-28T16:37:47.121Z,7.43
2022-12-28T16:40:16.063Z,5.87
2022-12-28T16:42:46.131Z,9.05
2022-12-28T16:45:15.160Z,7.65
2022-12-28T16:47:45.345Z,9.80
2022-12-28T16:50:14.073Z,7.63
2022-12-28T16:52:42.836Z,9.80
2022-12-28T16:55:11.590Z,9.27
2022-12-28T16:57:41.300Z,6.90
2022-12-28T17:00:11.930Z,9.35
2022-12-28T17:02:40.761Z,7.88
2022-12-28T17:05:11.639Z,9.07
2022-12-28T17:07:40.258Z,9.70
2022-12-28T17:10:10.651Z,8.23
2022-12-28T17:12:39.366Z,10.38
2022-12-28T17:15:09.695Z,9.93
2022-12-28T17:17:38.318Z,7.83
2022-12-28T17:20:08.744Z,8.63
2022-12-28T17:22:38.765Z,9.10
2022-12-28T17:25:08.300Z,8.07
2022-12-28T17:27:37.111Z,8.63
2022-12-28T17:30:06.650Z,11.80
2022-12-28T17:32:35.547Z,14.43
2022-12-28T17:35:04.475Z,11.73
2022-12-28T17:37:33.284Z,11.73
2022-12-28T17:40:03.389Z,11.18
2022-12-28T17:42:35.385Z,10.00
2022-12-28T17:45:10.809Z,10.60
2022-12-28T17:47:40.252Z,9.40
2022-12-28T17:50:12.872Z,11.45
2022-12-28T17:52:42.103Z,8.15
2022-12-28T17:55:12.217Z,9.97
2022-12-28T17:57:41.361Z,10.18
2022-12-28T18:00:12.754Z,10.10
2022-12-28T18:02:47.390Z,9.07
2022-12-28T18:05:16.483Z,9.07
2022-12-28T18:07:45.145Z,10.43
2022-12-28T18:10:15.172Z,8.98
2022-12-28T18:12:43.848Z,9.95
2022-12-28T18:15:12.804Z,10.70
2022-12-28T18:17:41.398Z,11.45
2022-12-28T18:20:11.486Z,11.30
2022-12-28T18:22:40.110Z,10.75
2022-12-28T18:25:09.957Z,10.63
2022-12-28T18:27:40.011Z,9.07
2022-12-28T18:30:10.393Z,8.68
2022-12-28T18:32:39.453Z,9.00
2022-12-28T18:35:10.202Z,9.10
2022-12-28T18:37:39.256Z,7.82
2022-12-28T18:40:10.704Z,7.38
2022-12-28T18:42:40.770Z,6.88
2022-12-28T18:45:10.740Z,7.97
2022-12-28T18:47:39.394Z,9.18
2022-12-28T18:50:09.855Z,6.63
2022-12-28T18:52:41.885Z,7.80
2022-12-28T18:55:11.353Z,6.30
2022-12-28T18:57:41.520Z,4.67
2022-12-28T19:00:12.603Z,6.68
2022-12-28T19:02:41.663Z,7.85
2022-12-28T19:05:10.978Z,7.13
2022-12-28T19:07:42.095Z,6.22
2022-12-28T19:10:19.308Z,5.50
2022-12-28T19:12:49.508Z,7.43
2022-12-28T19:15:18.741Z,6.95
2022-12-28T19:17:47.537Z,5.95
2022-12-28T19:20:16.804Z,6.50
2022-12-28T19:22:48.558Z,3.63
2022-12-28T19:25:17.634Z,6.78
2022-12-28T19:27:46.287Z,5.90
2022-12-28T19:30:16.543Z,4.13
2022-12-28T19:32:45.341Z,6.63
2022-12-28T19:35:15.675Z,5.80
2022-12-28T19:37:44.348Z,4.35
2022-12-28T19:40:13.980Z,3.08
2022-12-28T19:42:42.739Z,4.72
2022-12-28T19:45:12.057Z,3.30
2022-12-28T19:47:42.167Z,3.90
2022-12-28T19:50:10.956Z,5.95
2022-12-28T19:52:39.696Z,5.70
2022-12-28T19:55:09.263Z,3.80
2022-12-28T19:57:39.038Z,2.42
2022-12-28T20:00:09.821Z,3.97
2022-12-28T20:02:38.668Z,2.28
2022-12-28T20:05:10.260Z,5.85
2022-12-28T20:07:39.484Z,4.00
2022-12-28T20:10:09.080Z,3.00
2022-12-28T20:12:37.648Z,3.07
2022-12-28T20:15:07.952Z,7.55
2022-12-28T20:17:36.551Z,7.25
2022-12-28T20:20:08.518Z,4.60
2022-12-28T20:22:40.648Z,7.95
2022-12-28T20:25:10.859Z,6.37
2022-12-28T20:27:39.526Z,6.07
2022-12-28T20:30:09.878Z,3.03
2022-12-28T20:32:44.343Z,3.92
2022-12-28T20:35:14.926Z,3.60
2022-12-28T20:37:43.610Z,6.17
2022-12-28T20:40:13.271Z,1.67
2022-12-28T20:42:59.220Z,3.97
2022-12-28T20:45:27.862Z,2.63
2022-12-28T20:47:56.595Z,4.60
2022-12-28T20:50:27.976Z,4.00
2022-12-28T20:52:56.819Z,2.90
2022-12-28T20:55:25.505Z,4.50
2022-12-28T20:57:54.506Z,6.35
2022-12-28T21:00:23.348Z,5.18
2022-12-28T21:02:52.083Z,3.57
2022-12-28T21:05:20.888Z,4.22
2022-12-28T21:07:51.594Z,7.78
2022-12-28T21:10:20.228Z,4.60
2022-12-28T21:12:48.869Z,2.80
2022-12-28T21:15:17.651Z,3.63
2022-12-28T21:17:46.308Z,5.18
2022-12-28T21:20:15.183Z,4.53
2022-12-28T21:22:43.831Z,2.53
2022-12-28T21:25:13.862Z,4.15
2022-12-28T21:27:42.605Z,5.17
2022-12-28T21:30:12.873Z,3.53
2022-12-28T21:32:41.942Z,6.00
2022-12-28T21:35:11.453Z,4.95
2022-12-28T21:37:40.106Z,3.13
2022-12-28T21:40:13.507Z,1.90
2022-12-28T21:42:43.811Z,2.65
2022-12-28T21:45:13.047Z,4.85
2022-12-28T21:47:41.815Z,3.53
2022-12-28T21:50:12.333Z,2.55
2022-12-28T21:52:40.995Z,2.73
2022-12-28T21:55:27.071Z,2.63
2022-12-28T21:57:59.652Z,2.85
2022-12-28T22:00:47.318Z,4.75
2022-12-28T22:03:33.319Z,5.60
2022-12-28T22:06:04.995Z,3.97
2022-12-28T22:08:52.074Z,4.50
2022-12-28T22:11:39.258Z,3.33
2022-12-28T22:14:09.729Z,2.58
2022-12-28T22:16:38.383Z,4.72
2022-12-28T22:19:07.174Z,4.00
2022-12-28T22:21:36.332Z,4.45
2022-12-28T22:24:05.485Z,3.63
2022-12-28T22:26:34.091Z,3.20
2022-12-28T22:29:03.738Z,7.35
2022-12-28T22:31:33.844Z,4.00
2022-12-28T22:34:07.121Z,2.85
2022-12-28T22:36:36.361Z,2.78
2022-12-28T22:39:23.592Z,2.83
2022-12-28T22:41:52.750Z,2.67
2022-12-28T22:44:24.235Z,3.50
2022-12-28T22:47:09.771Z,2.30
2022-12-28T22:49:38.369Z,4.40
2022-12-28T22:52:07.072Z,4.63
2022-12-28T22:54:35.664Z,5.90
2022-12-28T22:57:04.386Z,4.43
2022-12-28T22:59:32.965Z,2.75
2022-12-28T23:02:03.256Z,3.70
2022-12-28T23:04:32.332Z,3.60
2022-12-28T23:07:03.995Z,4.05
2022-12-28T23:09:33.780Z,8.33
2022-12-28T23:12:02.567Z,5.18
2022-12-28T23:14:48.795Z,5.68
2022-12-28T23:17:19.358Z,6.03
2022-12-28T23:20:05.926Z,5.60
2022-12-28T23:22:53.829Z,5.80
2022-12-28T23:25:42.424Z,3.40
2022-12-28T23:28:13.791Z,7.32
2022-12-28T23:30:46.995Z,3.35
2022-12-28T23:33:19.061Z,4.25
2022-12-28T23:35:47.758Z,4.40
2022-12-28T23:38:16.455Z,2.60
2022-12-28T23:40:45.409Z,3.25
2022-12-28T23:43:14.132Z,4.25
2022-12-28T23:45:42.756Z,5.20
2022-12-28T23:48:11.355Z,3.67
2022-12-28T23:50:41.307Z,8.88
2022-12-28T23:53:09.996Z,6.90
2022-12-28T23:55:38.619Z,7.47
2022-12-28T23:58:07.264Z,5.68
